sensor_id;sensor_type;location;lat;lon;timestamp;pressure;altitude;pressure_sealevel;temperature;humidity
12987;BME280;58897;51.960;5.582;2023-06-26T00:01:02;100833.78;;;24.11;100.00
12987;BME280;58897;51.960;5.582;2023-06-26T00:03:29;100833.00;;;24.16;100.00
12987;BME280;58897;51.960;5.582;2023-06-26T00:05:55;100826.41;;;24.17;100.00
12987;BME280;58897;51.960;5.582;2023-06-26T00:08:28;100816.78;;;24.19;100.00
12987;BME280;58897;51.960;5.582;2023-06-26T00:10:55;100803.91;;;23.91;100.00
12987;BME280;58897;51.960;5.582;2023-06-26T00:13:23;100816.94;;;23.96;100.00
12987;BME280;58897;51.960;5.582;2023-06-26T00:15:50;100814.34;;;24.06;100.00
12987;BME280;58897;51.960;5.582;2023-06-26T00:18:17;100822.88;;;24.05;100.00
12987;BME280;58897;51.960;5.582;2023-06-26T00:20:43;100822.03;;;24.04;100.00
12987;BME280;58897;51.960;5.582;2023-06-26T00:23:11;100823.72;;;24.05;100.00
12987;BME280;58897;51.960;5.582;2023-06-26T00:25:38;100821.22;;;24.04;100.00
12987;BME280;58897;51.960;5.582;2023-06-26T00:28:04;100829.06;;;23.95;100.00
12987;BME280;58897;51.960;5.582;2023-06-26T00:30:31;100824.88;;;23.92;100.00
12987;BME280;58897;51.960;5.582;2023-06-26T00:32:57;100833.81;;;23.83;100.00
12987;BME280;58897;51.960;5.582;2023-06-26T00:35:24;100824.31;;;23.90;100.00
12987;BME280;58897;51.960;5.582;2023-06-26T00:37:50;100820.03;;;23.83;100.00
12987;BME280;58897;51.960;5.582;2023-06-26T00:40:17;100822.97;;;23.76;100.00
12987;BME280;58897;51.960;5.582;2023-06-26T00:42:44;100821.13;;;23.82;100.00
12987;BME280;58897;51.960;5.582;2023-06-26T00:45:10;100812.41;;;23.73;100.00
12987;BME280;58897;51.960;5.582;2023-06-26T00:47:37;100815.69;;;23.87;100.00
12987;BME280;58897;51.960;5.582;2023-06-26T00:50:04;100810.59;;;23.79;100.00
12987;BME280;58897;51.960;5.582;2023-06-26T00:52:32;100808.16;;;23.66;100.00
12987;BME280;58897;51.960;5.582;2023-06-26T00:54:59;100808.06;;;23.61;100.00
12987;BME280;58897;51.960;5.582;2023-06-26T00:57:26;100804.16;;;23.57;100.00
12987;BME280;58897;51.960;5.582;2023-06-26T00:59:53;100804.16;;;23.57;100.00
12987;BME280;58897;51.960;5.582;2023-06-26T01:02:20;100807.91;;;23.51;100.00
12987;BME280;58897;51.960;5.582;2023-06-26T01:04:50;100802.63;;;23.49;100.00
12987;BME280;58897;51.960;5.582;2023-06-26T01:07:19;100804.38;;;23.55;100.00
12987;BME280;58897;51.960;5.582;2023-06-26T01:09:47;100807.81;;;23.46;100.00
12987;BME280;58897;51.960;5.582;2023-06-26T01:12:14;100809.91;;;23.55;100.00
12987;BME280;58897;51.960;5.582;2023-06-26T01:14:41;100805.81;;;23.58;100.00
12987;BME280;58897;51.960;5.582;2023-06-26T01:17:09;100814.00;;;23.53;100.00
12987;BME280;58897;51.960;5.582;2023-06-26T01:19:40;100823.94;;;23.54;100.00
12987;BME280;58897;51.960;5.582;2023-06-26T01:25:08;100828.44;;;23.43;100.00
12987;BME280;58897;51.960;5.582;2023-06-26T01:27:38;100833.47;;;23.46;100.00
12987;BME280;58897;51.960;5.582;2023-06-26T01:30:06;100839.59;;;23.37;100.00
12987;BME280;58897;51.960;5.582;2023-06-26T01:32:33;100830.25;;;23.38;100.00
12987;BME280;58897;51.960;5.582;2023-06-26T01:35:02;100833.59;;;23.40;100.00
12987;BME280;58897;51.960;5.582;2023-06-26T01:37:28;100829.03;;;23.33;100.00
12987;BME280;58897;51.960;5.582;2023-06-26T01:39:55;100834.44;;;23.28;100.00
12987;BME280;58897;51.960;5.582;2023-06-26T01:42:22;100841.91;;;23.28;100.00
12987;BME280;58897;51.960;5.582;2023-06-26T01:44:48;100855.88;;;23.10;100.00
12987;BME280;58897;51.960;5.582;2023-06-26T01:47:19;100854.41;;;23.19;100.00
12987;BME280;58897;51.960;5.582;2023-06-26T01:50:11;100856.41;;;23.23;100.00
12987;BME280;58897;51.960;5.582;2023-06-26T01:52:59;100861.25;;;23.05;100.00
12987;BME280;58897;51.960;5.582;2023-06-26T01:58:02;100867.19;;;22.85;100.00
12987;BME280;58897;51.960;5.582;2023-06-26T02:00:30;100871.53;;;22.69;100.00
12987;BME280;58897;51.960;5.582;2023-06-26T02:02:58;100881.47;;;22.70;100.00
12987;BME280;58897;51.960;5.582;2023-06-26T02:05:25;100876.19;;;22.57;100.00
12987;BME280;58897;51.960;5.582;2023-06-26T02:07:51;100879.91;;;22.51;100.00
12987;BME280;58897;51.960;5.582;2023-06-26T02:10:18;100873.56;;;22.51;100.00
12987;BME280;58897;51.960;5.582;2023-06-26T02:12:45;100876.31;;;22.39;100.00
12987;BME280;58897;51.960;5.582;2023-06-26T02:15:11;100879.56;;;22.36;100.00
12987;BME280;58897;51.960;5.582;2023-06-26T02:17:38;100874.53;;;22.33;100.00
12987;BME280;58897;51.960;5.582;2023-06-26T02:20:05;100880.41;;;22.37;100.00
12987;BME280;58897;51.960;5.582;2023-06-26T02:22:32;100871.63;;;22.17;100.00
12987;BME280;58897;51.960;5.582;2023-06-26T02:24:59;100870.78;;;22.16;100.00
12987;BME280;58897;51.960;5.582;2023-06-26T02:27:25;100872.00;;;21.97;100.00
12987;BME280;58897;51.960;5.582;2023-06-26T02:29:52;100871.72;;;21.98;100.00
12987;BME280;58897;51.960;5.582;2023-06-26T02:32:18;100873.00;;;21.84;100.00
12987;BME280;58897;51.960;5.582;2023-06-26T02:34:45;100868.84;;;21.93;100.00
12987;BME280;58897;51.960;5.582;2023-06-26T02:37:11;100872.56;;;21.87;100.00
12987;BME280;58897;51.960;5.582;2023-06-26T02:39:38;100873.63;;;21.86;100.00
12987;BME280;58897;51.960;5.582;2023-06-26T02:42:04;100871.25;;;22.01;100.00
12987;BME280;58897;51.960;5.582;2023-06-26T02:44:31;100877.41;;;21.85;100.00
12987;BME280;58897;51.960;5.582;2023-06-26T02:46:58;100883.88;;;21.79;100.00
12987;BME280;58897;51.960;5.582;2023-06-26T02:49:24;100889.06;;;21.87;100.00
12987;BME280;58897;51.960;5.582;2023-06-26T02:51:51;100883.88;;;21.79;100.00
12987;BME280;58897;51.960;5.582;2023-06-26T02:54:17;100887.66;;;21.67;100.00
12987;BME280;58897;51.960;5.582;2023-06-26T02:56:44;100888.63;;;21.72;100.00
12987;BME280;58897;51.960;5.582;2023-06-26T02:59:14;100890.06;;;21.63;100.00
12987;BME280;58897;51.960;5.582;2023-06-26T03:01:40;100892.34;;;21.66;100.00
12987;BME280;58897;51.960;5.582;2023-06-26T03:04:07;100898.75;;;21.60;100.00
12987;BME280;58897;51.960;5.582;2023-06-26T03:06:33;100891.31;;;21.49;100.00
12987;BME280;58897;51.960;5.582;2023-06-26T03:09:00;100900.16;;;21.51;100.00
12987;BME280;58897;51.960;5.582;2023-06-26T03:11:26;100906.72;;;21.50;100.00
12987;BME280;58897;51.960;5.582;2023-06-26T03:13:53;100902.34;;;21.31;100.00
12987;BME280;58897;51.960;5.582;2023-06-26T03:16:19;100908.69;;;21.31;100.00
12987;BME280;58897;51.960;5.582;2023-06-26T03:18:46;100914.84;;;21.45;100.00
12987;BME280;58897;51.960;5.582;2023-06-26T03:21:13;100917.44;;;21.40;100.00
12987;BME280;58897;51.960;5.582;2023-06-26T03:23:39;100922.69;;;21.41;100.00
12987;BME280;58897;51.960;5.582;2023-06-26T03:26:06;100926.28;;;21.42;100.00
12987;BME280;58897;51.960;5.582;2023-06-26T03:28:32;100924.75;;;21.46;100.00
12987;BME280;58897;51.960;5.582;2023-06-26T03:30:59;100914.16;;;21.31;100.00
12987;BME280;58897;51.960;5.582;2023-06-26T03:33:25;100912.06;;;21.15;100.00
12987;BME280;58897;51.960;5.582;2023-06-26T03:35:52;100907.69;;;21.26;100.00
12987;BME280;58897;51.960;5.582;2023-06-26T03:38:19;100906.53;;;21.33;100.00
12987;BME280;58897;51.960;5.582;2023-06-26T03:40:45;100916.69;;;21.33;100.00
12987;BME280;58897;51.960;5.582;2023-06-26T03:43:12;100907.94;;;21.24;100.00
12987;BME280;58897;51.960;5.582;2023-06-26T03:45:38;100907.31;;;21.22;100.00
12987;BME280;58897;51.960;5.582;2023-06-26T03:48:05;100914.69;;;21.40;100.00
12987;BME280;58897;51.960;5.582;2023-06-26T03:50:32;100906.91;;;21.37;100.00
12987;BME280;58897;51.960;5.582;2023-06-26T03:52:58;100908.84;;;21.18;100.00
12987;BME280;58897;51.960;5.582;2023-06-26T03:55:25;100919.00;;;21.18;100.00
12987;BME280;58897;51.960;5.582;2023-06-26T03:57:52;100921.88;;;21.23;100.00
12987;BME280;58897;51.960;5.582;2023-06-26T04:00:18;100936.31;;;21.18;100.00
12987;BME280;58897;51.960;5.582;2023-06-26T04:02:45;100949.94;;;21.25;100.00
12987;BME280;58897;51.960;5.582;2023-06-26T04:05:11;100947.44;;;21.41;100.00
12987;BME280;58897;51.960;5.582;2023-06-26T04:07:38;100942.06;;;21.46;100.00
12987;BME280;58897;51.960;5.582;2023-06-26T04:10:06;100945.00;;;21.33;100.00
12987;BME280;58897;51.960;5.582;2023-06-26T04:12:32;100957.69;;;21.34;100.00
12987;BME280;58897;51.960;5.582;2023-06-26T04:14:59;100945.44;;;21.30;100.00
12987;BME280;58897;51.960;5.582;2023-06-26T04:17:26;100955.84;;;21.28;100.00
12987;BME280;58897;51.960;5.582;2023-06-26T04:19:52;100955.69;;;21.23;100.00
12987;BME280;58897;51.960;5.582;2023-06-26T04:22:19;100959.44;;;21.29;100.00
12987;BME280;58897;51.960;5.582;2023-06-26T04:24:46;100959.03;;;21.43;100.00
12987;BME280;58897;51.960;5.582;2023-06-26T04:27:12;100960.66;;;21.15;100.00
12987;BME280;58897;51.960;5.582;2023-06-26T04:29:40;100971.72;;;21.26;100.00
12987;BME280;58897;51.960;5.582;2023-06-26T04:32:06;100960.44;;;21.16;100.00
12987;BME280;58897;51.960;5.582;2023-06-26T04:34:33;100979.06;;;21.14;100.00
12987;BME280;58897;51.960;5.582;2023-06-26T04:37:02;100977.63;;;21.12;100.00
12987;BME280;58897;51.960;5.582;2023-06-26T04:39:30;100974.69;;;21.25;100.00
12987;BME280;58897;51.960;5.582;2023-06-26T04:41:57;100976.16;;;21.27;100.00
12987;BME280;58897;51.960;5.582;2023-06-26T04:44:23;100973.47;;;21.21;100.00
12987;BME280;58897;51.960;5.582;2023-06-26T04:46:50;100986.81;;;21.17;100.00
12987;BME280;58897;51.960;5.582;2023-06-26T04:49:18;100986.06;;;21.28;100.00
12987;BME280;58897;51.960;5.582;2023-06-26T04:51:46;100978.91;;;21.27;100.00
12987;BME280;58897;51.960;5.582;2023-06-26T04:54:13;100977.44;;;21.07;100.00
12987;BME280;58897;51.960;5.582;2023-06-26T04:56:39;100987.13;;;21.09;100.00
12987;BME280;58897;51.960;5.582;2023-06-26T04:59:10;100986.75;;;21.24;100.00
12987;BME280;58897;51.960;5.582;2023-06-26T05:01:40;100989.03;;;21.45;100.00
12987;BME280;58897;51.960;5.582;2023-06-26T05:04:07;100995.19;;;21.40;100.00
12987;BME280;58897;51.960;5.582;2023-06-26T05:06:33;100994.91;;;21.30;100.00
12987;BME280;58897;51.960;5.582;2023-06-26T05:09:00;100995.84;;;21.42;100.00
12987;BME280;58897;51.960;5.582;2023-06-26T05:11:26;101003.84;;;21.44;100.00
12987;BME280;58897;51.960;5.582;2023-06-26T05:13:53;101002.00;;;21.56;100.00
12987;BME280;58897;51.960;5.582;2023-06-26T05:16:19;101005.81;;;21.55;100.00
12987;BME280;58897;51.960;5.582;2023-06-26T05:18:46;101013.75;;;21.63;100.00
12987;BME280;58897;51.960;5.582;2023-06-26T05:21:13;101022.59;;;21.65;100.00
12987;BME280;58897;51.960;5.582;2023-06-26T05:23:39;101010.63;;;21.41;100.00
12987;BME280;58897;51.960;5.582;2023-06-26T05:26:07;101021.00;;;21.58;100.00
12987;BME280;58897;51.960;5.582;2023-06-26T05:28:33;101020.16;;;21.57;100.00
12987;BME280;58897;51.960;5.582;2023-06-26T05:31:02;101016.78;;;21.73;100.00
12987;BME280;58897;51.960;5.582;2023-06-26T05:33:34;101016.56;;;21.57;100.00
12987;BME280;58897;51.960;5.582;2023-06-26T05:36:03;101026.75;;;21.56;100.00
12987;BME280;58897;51.960;5.582;2023-06-26T05:38:30;101032.84;;;21.58;100.00
12987;BME280;58897;51.960;5.582;2023-06-26T05:40:57;101039.66;;;21.85;100.00
12987;BME280;58897;51.960;5.582;2023-06-26T05:43:23;101040.63;;;21.79;100.00
12987;BME280;58897;51.960;5.582;2023-06-26T05:45:54;101048.81;;;21.49;100.00
12987;BME280;58897;51.960;5.582;2023-06-26T05:48:21;101048.53;;;21.69;100.00
12987;BME280;58897;51.960;5.582;2023-06-26T05:50:47;101059.63;;;21.81;100.00
12987;BME280;58897;51.960;5.582;2023-06-26T05:53:14;101051.97;;;21.83;100.00
12987;BME280;58897;51.960;5.582;2023-06-26T05:55:41;101059.00;;;21.79;100.00
12987;BME280;58897;51.960;5.582;2023-06-26T05:58:10;101055.88;;;21.75;100.00
12987;BME280;58897;51.960;5.582;2023-06-26T06:00:38;101060.38;;;21.88;100.00
12987;BME280;58897;51.960;5.582;2023-06-26T06:03:05;101067.44;;;21.66;100.00
12987;BME280;58897;51.960;5.582;2023-06-26T06:05:32;101065.44;;;21.91;100.00
12987;BME280;58897;51.960;5.582;2023-06-26T06:07:58;101078.78;;;22.05;100.00
12987;BME280;58897;51.960;5.582;2023-06-26T06:10:25;101080.91;;;22.03;100.00
12987;BME280;58897;51.960;5.582;2023-06-26T06:12:52;101081.38;;;22.00;100.00
12987;BME280;58897;51.960;5.582;2023-06-26T06:15:20;101082.63;;;22.16;100.00
12987;BME280;58897;51.960;5.582;2023-06-26T06:17:47;101098.81;;;22.24;100.00
12987;BME280;58897;51.960;5.582;2023-06-26T06:20:14;101091.78;;;22.28;100.00
12987;BME280;58897;51.960;5.582;2023-06-26T06:22:40;101094.25;;;22.48;100.00
12987;BME280;58897;51.960;5.582;2023-06-26T06:25:07;101098.56;;;22.55;100.00
12987;BME280;58897;51.960;5.582;2023-06-26T06:27:34;101105.22;;;22.66;100.00
12987;BME280;58897;51.960;5.582;2023-06-26T06:30:00;101121.09;;;22.94;100.00
12987;BME280;58897;51.960;5.582;2023-06-26T06:32:27;101119.88;;;23.13;100.00
12987;BME280;58897;51.960;5.582;2023-06-26T06:34:54;101110.47;;;23.44;100.00
12987;BME280;58897;51.960;5.582;2023-06-26T06:37:20;101109.84;;;23.42;100.00
12987;BME280;58897;51.960;5.582;2023-06-26T06:39:47;101111.19;;;24.14;100.00
12987;BME280;58897;51.960;5.582;2023-06-26T06:42:13;101111.69;;;24.55;100.00
12987;BME280;58897;51.960;5.582;2023-06-26T06:44:40;101121.84;;;24.38;100.00
12987;BME280;58897;51.960;5.582;2023-06-26T06:47:06;101129.19;;;24.33;100.00
12987;BME280;58897;51.960;5.582;2023-06-26T06:49:33;101137.84;;;23.85;100.00
12987;BME280;58897;51.960;5.582;2023-06-26T06:51:59;101147.00;;;23.74;100.00
12987;BME280;58897;51.960;5.582;2023-06-26T06:54:26;101153.41;;;24.14;100.00
12987;BME280;58897;51.960;5.582;2023-06-26T06:56:54;101147.19;;;24.92;100.00
12987;BME280;58897;51.960;5.582;2023-06-26T06:59:20;101167.53;;;24.58;100.00
12987;BME280;58897;51.960;5.582;2023-06-26T07:01:47;101161.63;;;24.54;100.00
12987;BME280;58897;51.960;5.582;2023-06-26T07:04:13;101177.38;;;24.53;100.00
12987;BME280;58897;51.960;5.582;2023-06-26T07:06:40;101172.28;;;25.40;100.00
12987;BME280;58897;51.960;5.582;2023-06-26T07:09:07;101175.84;;;23.94;100.00
12987;BME280;58897;51.960;5.582;2023-06-26T07:11:35;101179.13;;;23.80;100.00
12987;BME280;58897;51.960;5.582;2023-06-26T07:14:01;101168.22;;;23.85;100.00
12987;BME280;58897;51.960;5.582;2023-06-26T07:16:28;101168.53;;;24.00;100.00
12987;BME280;58897;51.960;5.582;2023-06-26T07:18:55;101164.41;;;24.54;100.00
12987;BME280;58897;51.960;5.582;2023-06-26T07:21:21;101175.25;;;24.44;100.00
12987;BME280;58897;51.960;5.582;2023-06-26T07:23:51;101178.25;;;23.91;100.00
12987;BME280;58897;51.960;5.582;2023-06-26T07:26:18;101177.91;;;25.45;100.00
12987;BME280;58897;51.960;5.582;2023-06-26T07:28:54;101191.25;;;26.03;100.00
12987;BME280;58897;51.960;5.582;2023-06-26T07:31:23;101195.69;;;24.99;100.00
12987;BME280;58897;51.960;5.582;2023-06-26T07:33:49;101191.44;;;24.52;100.00
12987;BME280;58897;51.960;5.582;2023-06-26T07:36:16;101194.81;;;23.91;100.00
12987;BME280;58897;51.960;5.582;2023-06-26T07:38:42;101200.06;;;23.34;100.00
12987;BME280;58897;51.960;5.582;2023-06-26T07:41:09;101205.72;;;23.86;100.00
12987;BME280;58897;51.960;5.582;2023-06-26T07:43:36;101197.78;;;25.26;100.00
12987;BME280;58897;51.960;5.582;2023-06-26T07:46:02;101193.06;;;25.76;100.00
12987;BME280;58897;51.960;5.582;2023-06-26T07:48:29;101199.75;;;26.62;100.00
12987;BME280;58897;51.960;5.582;2023-06-26T07:50:55;101202.41;;;26.30;100.00
12987;BME280;58897;51.960;5.582;2023-06-26T07:53:22;101199.84;;;26.98;100.00
12987;BME280;58897;51.960;5.582;2023-06-26T07:55:48;101220.56;;;26.43;100.00
12987;BME280;58897;51.960;5.582;2023-06-26T07:58:15;101221.97;;;25.02;100.00
12987;BME280;58897;51.960;5.582;2023-06-26T08:00:42;101226.16;;;24.76;100.00
12987;BME280;58897;51.960;5.582;2023-06-26T08:03:08;101226.28;;;25.26;100.00
12987;BME280;58897;51.960;5.582;2023-06-26T08:05:50;101238.19;;;24.82;100.00
12987;BME280;58897;51.960;5.582;2023-06-26T08:08:17;101225.06;;;24.89;100.00
12987;BME280;58897;51.960;5.582;2023-06-26T08:10:44;101221.78;;;25.53;100.00
12987;BME280;58897;51.960;5.582;2023-06-26T08:13:10;101223.03;;;24.84;100.00
12987;BME280;58897;51.960;5.582;2023-06-26T08:15:37;101209.63;;;25.54;100.00
12987;BME280;58897;51.960;5.582;2023-06-26T08:18:03;101224.38;;;25.60;100.00
12987;BME280;58897;51.960;5.582;2023-06-26T08:20:30;101226.53;;;25.74;100.00
12987;BME280;58897;51.960;5.582;2023-06-26T08:22:57;101234.25;;;26.54;100.00
12987;BME280;58897;51.960;5.582;2023-06-26T08:25:23;101230.56;;;27.19;100.00
12987;BME280;58897;51.960;5.582;2023-06-26T08:27:50;101234.94;;;27.41;100.00
12987;BME280;58897;51.960;5.582;2023-06-26T08:30:19;101241.44;;;25.40;100.00
12987;BME280;58897;51.960;5.582;2023-06-26T08:32:45;101234.94;;;26.61;100.00
12987;BME280;58897;51.960;5.582;2023-06-26T08:35:12;101231.91;;;27.43;100.00
12987;BME280;58897;51.960;5.582;2023-06-26T08:37:38;101239.09;;;25.82;100.00
12987;BME280;58897;51.960;5.582;2023-06-26T08:40:06;101248.16;;;25.44;100.00
12987;BME280;58897;51.960;5.582;2023-06-26T08:42:33;101241.63;;;26.22;100.00
12987;BME280;58897;51.960;5.582;2023-06-26T08:45:00;101248.84;;;26.88;99.93
12987;BME280;58897;51.960;5.582;2023-06-26T08:47:29;101245.00;;;27.21;99.13
12987;BME280;58897;51.960;5.582;2023-06-26T08:50:07;101250.34;;;25.75;100.00
12987;BME280;58897;51.960;5.582;2023-06-26T08:52:55;101256.97;;;24.96;100.00
12987;BME280;58897;51.960;5.582;2023-06-26T08:55:27;101275.56;;;24.21;100.00
12987;BME280;58897;51.960;5.582;2023-06-26T08:57:55;101259.28;;;25.99;100.00
12987;BME280;58897;51.960;5.582;2023-06-26T09:00:22;101264.09;;;27.76;92.77
12987;BME280;58897;51.960;5.582;2023-06-26T09:02:49;101259.09;;;28.76;79.43
12987;BME280;58897;51.960;5.582;2023-06-26T09:05:16;101262.88;;;29.32;79.10
12987;BME280;58897;51.960;5.582;2023-06-26T09:07:42;101263.94;;;27.29;90.87
12987;BME280;58897;51.960;5.582;2023-06-26T09:10:09;101278.81;;;26.69;97.03
12987;BME280;58897;51.960;5.582;2023-06-26T09:12:36;101266.78;;;27.07;91.41
12987;BME280;58897;51.960;5.582;2023-06-26T09:15:05;101275.78;;;27.83;79.71
12987;BME280;58897;51.960;5.582;2023-06-26T09:17:39;101275.22;;;28.17;70.92
12987;BME280;58897;51.960;5.582;2023-06-26T09:20:09;101278.25;;;27.42;82.15
12987;BME280;58897;51.960;5.582;2023-06-26T09:22:37;101290.59;;;29.12;73.37
12987;BME280;58897;51.960;5.582;2023-06-26T09:25:08;101285.81;;;27.89;75.24
12987;BME280;58897;51.960;5.582;2023-06-26T09:27:36;101279.56;;;29.63;66.28
12987;BME280;58897;51.960;5.582;2023-06-26T09:30:03;101286.81;;;29.74;68.17
12987;BME280;58897;51.960;5.582;2023-06-26T09:32:30;101297.97;;;27.19;85.37
12987;BME280;58897;51.960;5.582;2023-06-26T09:34:57;101299.50;;;29.04;70.21
12987;BME280;58897;51.960;5.582;2023-06-26T09:37:24;101300.06;;;29.06;68.10
12987;BME280;58897;51.960;5.582;2023-06-26T09:39:50;101293.69;;;30.42;59.04
12987;BME280;58897;51.960;5.582;2023-06-26T09:42:17;101311.59;;;31.00;62.03
12987;BME280;58897;51.960;5.582;2023-06-26T09:44:46;101308.00;;;27.84;77.11
12987;BME280;58897;51.960;5.582;2023-06-26T09:47:16;101306.00;;;26.72;84.59
12987;BME280;58897;51.960;5.582;2023-06-26T09:49:43;101319.34;;;26.54;89.89
12987;BME280;58897;51.960;5.582;2023-06-26T09:52:10;101325.38;;;28.48;76.09
12987;BME280;58897;51.960;5.582;2023-06-26T09:54:39;101340.00;;;26.68;83.82
12987;BME280;58897;51.960;5.582;2023-06-26T09:57:13;101339.84;;;26.36;84.08
12987;BME280;58897;51.960;5.582;2023-06-26T09:59:41;101335.25;;;25.92;84.51
12987;BME280;58897;51.960;5.582;2023-06-26T10:02:08;101335.28;;;25.30;90.23
12987;BME280;58897;51.960;5.582;2023-06-26T10:04:35;101344.03;;;25.10;95.57
12987;BME280;58897;51.960;5.582;2023-06-26T10:07:04;101338.50;;;27.25;85.21
12987;BME280;58897;51.960;5.582;2023-06-26T10:09:34;101332.75;;;27.90;75.18
12987;BME280;58897;51.960;5.582;2023-06-26T10:12:06;101339.28;;;28.53;71.84
12987;BME280;58897;51.960;5.582;2023-06-26T10:14:35;101333.31;;;29.88;66.99
12987;BME280;58897;51.960;5.582;2023-06-26T10:17:04;101357.00;;;27.20;75.03
12987;BME280;58897;51.960;5.582;2023-06-26T10:19:33;101353.56;;;27.88;70.49
12987;BME280;58897;51.960;5.582;2023-06-26T10:22:02;101343.69;;;28.96;61.79
12987;BME280;58897;51.960;5.582;2023-06-26T10:24:31;101342.19;;;29.60;60.40
12987;BME280;58897;51.960;5.582;2023-06-26T10:27:06;101351.63;;;29.39;65.34
12987;BME280;58897;51.960;5.582;2023-06-26T10:29:35;101363.19;;;26.78;71.50
12987;BME280;58897;51.960;5.582;2023-06-26T10:32:04;101367.91;;;26.06;81.48
12987;BME280;58897;51.960;5.582;2023-06-26T10:34:32;101370.88;;;27.68;68.06
12987;BME280;58897;51.960;5.582;2023-06-26T10:37:02;101364.53;;;28.41;59.98
12987;BME280;58897;51.960;5.582;2023-06-26T10:39:59;101357.03;;;28.94;58.36
12987;BME280;58897;51.960;5.582;2023-06-26T10:42:36;101362.16;;;26.68;69.42
12987;BME280;58897;51.960;5.582;2023-06-26T10:45:16;101371.59;;;25.95;83.38
12987;BME280;58897;51.960;5.582;2023-06-26T10:47:47;101360.66;;;28.47;68.12
12987;BME280;58897;51.960;5.582;2023-06-26T10:50:28;101357.44;;;28.65;62.46
12987;BME280;58897;51.960;5.582;2023-06-26T10:53:10;101352.97;;;29.21;56.42
12987;BME280;58897;51.960;5.582;2023-06-26T10:55:41;101356.41;;;29.59;55.93
12987;BME280;58897;51.960;5.582;2023-06-26T11:03:41;101371.75;;;30.22;55.65
12987;BME280;58897;51.960;5.582;2023-06-26T11:06:18;101372.13;;;28.61;61.72
12987;BME280;58897;51.960;5.582;2023-06-26T11:08:53;101375.25;;;28.64;57.38
12987;BME280;58897;51.960;5.582;2023-06-26T11:11:21;101390.13;;;28.90;53.45
12987;BME280;58897;51.960;5.582;2023-06-26T11:13:48;101385.09;;;28.92;54.66
12987;BME280;58897;51.960;5.582;2023-06-26T11:16:15;101388.41;;;29.51;52.03
12987;BME280;58897;51.960;5.582;2023-06-26T11:18:42;101385.78;;;28.21;60.42
12987;BME280;58897;51.960;5.582;2023-06-26T11:21:09;101376.59;;;27.88;62.19
12987;BME280;58897;51.960;5.582;2023-06-26T11:23:38;101386.38;;;27.96;60.70
12987;BME280;58897;51.960;5.582;2023-06-26T11:26:13;101402.34;;;27.52;67.47
12987;BME280;58897;51.960;5.582;2023-06-26T11:28:46;101399.38;;;27.37;66.03
12987;BME280;58897;51.960;5.582;2023-06-26T11:31:36;101404.28;;;27.78;63.61
12987;BME280;58897;51.960;5.582;2023-06-26T11:34:08;101406.66;;;28.65;57.45
12987;BME280;58897;51.960;5.582;2023-06-26T11:36:37;101414.72;;;27.98;59.46
12987;BME280;58897;51.960;5.582;2023-06-26T11:39:05;101408.75;;;27.79;66.31
12987;BME280;58897;51.960;5.582;2023-06-26T11:41:34;101422.88;;;29.45;60.33
12987;BME280;58897;51.960;5.582;2023-06-26T11:44:05;101408.69;;;29.47;54.96
12987;BME280;58897;51.960;5.582;2023-06-26T11:46:33;101417.88;;;28.80;54.91
12987;BME280;58897;51.960;5.582;2023-06-26T11:49:07;101430.66;;;27.81;63.29
12987;BME280;58897;51.960;5.582;2023-06-26T11:51:35;101432.09;;;29.56;55.79
12987;BME280;58897;51.960;5.582;2023-06-26T11:54:04;101428.66;;;29.23;59.75
12987;BME280;58897;51.960;5.582;2023-06-26T11:56:31;101431.28;;;29.70;52.21
12987;BME280;58897;51.960;5.582;2023-06-26T12:01:39;101442.22;;;29.97;50.50
12987;BME280;58897;51.960;5.582;2023-06-26T12:04:09;101443.19;;;29.41;53.22
12987;BME280;58897;51.960;5.582;2023-06-26T12:06:38;101456.16;;;27.51;59.08
12987;BME280;58897;51.960;5.582;2023-06-26T12:09:08;101464.13;;;26.82;64.40
12987;BME280;58897;51.960;5.582;2023-06-26T12:11:40;101460.56;;;27.47;62.79
12987;BME280;58897;51.960;5.582;2023-06-26T12:14:07;101470.53;;;27.96;60.38
12987;BME280;58897;51.960;5.582;2023-06-26T12:16:35;101466.09;;;29.01;54.23
12987;BME280;58897;51.960;5.582;2023-06-26T12:19:03;101467.59;;;28.76;54.39
12987;BME280;58897;51.960;5.582;2023-06-26T12:21:45;101467.84;;;28.33;54.70
12987;BME280;58897;51.960;5.582;2023-06-26T12:24:17;101479.19;;;28.00;58.98
12987;BME280;58897;51.960;5.582;2023-06-26T12:26:49;101478.78;;;29.38;53.55
12987;BME280;58897;51.960;5.582;2023-06-26T12:29:19;101465.38;;;30.43;54.28
12987;BME280;58897;51.960;5.582;2023-06-26T12:31:49;101471.41;;;28.29;54.27
12987;BME280;58897;51.960;5.582;2023-06-26T12:34:19;101467.81;;;29.79;54.50
12987;BME280;58897;51.960;5.582;2023-06-26T12:36:50;101463.31;;;29.78;51.44
12987;BME280;58897;51.960;5.582;2023-06-26T12:39:18;101468.13;;;29.98;48.67
12987;BME280;58897;51.960;5.582;2023-06-26T12:41:51;101458.13;;;30.27;47.04
12987;BME280;58897;51.960;5.582;2023-06-26T12:44:24;101460.34;;;29.17;48.07
12987;BME280;58897;51.960;5.582;2023-06-26T12:46:59;101476.66;;;29.66;51.32
12987;BME280;58897;51.960;5.582;2023-06-26T12:49:30;101479.34;;;29.30;45.91
12987;BME280;58897;51.960;5.582;2023-06-26T12:52:04;101471.31;;;28.92;46.41
12987;BME280;58897;51.960;5.582;2023-06-26T12:54:31;101475.41;;;29.26;49.19
12987;BME280;58897;51.960;5.582;2023-06-26T12:56:58;101488.00;;;29.44;46.44
12987;BME280;58897;51.960;5.582;2023-06-26T12:59:25;101477.16;;;28.91;48.49
12987;BME280;58897;51.960;5.582;2023-06-26T13:01:51;101478.19;;;29.21;47.57